Time;durP1;ratioP1;P1;durP2;ratioP2;P2;SDS_P1;SDS_P2;PMS_P1;PMS_P2;Temp;Humidity;BMP_temperature;BMP_pressure;BME280_temperature;BME280_humidity;BME280_pressure;Samples;Min_cycle;Max_cycle;Signal;HPM_P1;HPM_P2
2023/03/07 00:04:30;;;;;;;35.00;19.40;;;;;;;1.34;79.88;97493.40;218646;1294;23614;-75
2023/03/07 00:09:33;;;;;;;32.00;17.30;;;;;;;1.33;79.61;97493.62;218978;1297;22560;-76
2023/03/07 00:14:40;;;;;;;32.00;18.40;;;;;;;1.29;79.99;97494.91;218527;1297;22578;-76
2023/03/07 00:19:42;;;;;;;37.20;20.90;;;;;;;1.24;79.92;97488.76;218435;1296;23209;-75
2023/03/07 00:24:47;;;;;;;37.70;21.60;;;;;;;1.19;79.97;97485.02;218591;1295;25512;-76
2023/03/07 00:29:49;;;;;;;36.70;22.00;;;;;;;1.11;79.83;97485.63;218546;1296;22547;-75
2023/03/07 00:34:52;;;;;;;43.90;24.20;;;;;;;1.03;79.82;97481.61;218746;1297;22676;-74
2023/03/07 00:39:56;;;;;;;42.20;23.50;;;;;;;0.94;79.71;97483.41;218786;1297;22570;-75
2023/03/07 00:44:59;;;;;;;43.30;24.70;;;;;;;0.87;79.90;97480.58;218756;1296;22547;-75
2023/03/07 00:50:08;;;;;;;45.40;25.90;;;;;;;0.81;79.91;97477.57;218451;1297;24396;-76
2023/03/07 00:55:10;;;;;;;43.70;23.80;;;;;;;0.77;80.13;97473.45;218639;1292;24417;-74
2023/03/07 01:00:13;;;;;;;39.90;22.80;;;;;;;0.75;80.20;97473.29;218390;1297;25428;-76
2023/03/07 01:05:16;;;;;;;42.00;20.90;;;;;;;0.79;80.72;97464.45;218759;1295;24282;-75
2023/03/07 01:10:18;;;;;;;36.10;22.00;;;;;;;0.84;80.66;97461.59;218773;1295;23163;-75
2023/03/07 01:15:21;;;;;;;37.30;20.60;;;;;;;0.90;80.62;97456.82;218526;1297;22588;-75
2023/03/07 01:20:24;;;;;;;39.20;21.60;;;;;;;0.94;80.54;97453.77;218697;1295;26444;-74
2023/03/07 01:25:27;;;;;;;35.40;21.00;;;;;;;0.96;80.18;97455.14;218417;1297;22540;-74
2023/03/07 01:30:32;;;;;;;34.90;20.50;;;;;;;0.99;80.59;97449.14;218926;1297;25488;-75
2023/03/07 01:35:36;;;;;;;34.50;19.70;;;;;;;1.01;80.88;97444.59;218705;1296;25529;-75
2023/03/07 01:40:39;;;;;;;29.20;18.20;;;;;;;1.03;80.64;97442.83;218402;1292;22577;-74
2023/03/07 01:45:44;;;;;;;36.10;20.40;;;;;;;1.04;80.61;97441.27;218686;1295;25326;-75
2023/03/07 01:50:48;;;;;;;34.70;20.00;;;;;;;1.06;80.60;97434.17;218801;1292;22598;-75
2023/03/07 01:55:50;;;;;;;32.70;20.00;;;;;;;1.07;80.75;97434.21;218569;1292;25354;-75
2023/03/07 02:00:54;;;;;;;32.50;18.40;;;;;;;1.09;80.57;97427.78;218385;1295;22562;-75
2023/03/07 02:06:00;;;;;;;30.30;18.90;;;;;;;1.11;80.93;97423.11;219117;1297;24253;-75
2023/03/07 02:11:04;;;;;;;30.50;17.50;;;;;;;1.14;80.82;97416.73;218595;1292;24465;-74
2023/03/07 02:16:07;;;;;;;30.50;18.00;;;;;;;1.17;80.85;97412.75;218535;1297;22545;-76
2023/03/07 02:21:14;;;;;;;28.20;16.60;;;;;;;1.21;80.62;97407.07;218562;1297;23248;-75
2023/03/07 02:26:35;;;;;;;25.80;16.10;;;;;;;1.25;81.01;97409.39;218659;1293;22575;-75
2023/03/07 02:31:37;;;;;;;;;;;;;;;1.30;80.86;97406.01;218909;1297;22523;-74
2023/03/07 02:36:39;;;;;;;29.50;16.00;;;;;;;1.32;80.52;97405.36;218508;1295;24435;-75
2023/03/07 02:41:53;;;;;;;27.00;15.60;;;;;;;1.35;80.57;97405.43;218783;1279;23716;-76
2023/03/07 02:47:04;;;;;;;23.20;15.80;;;;;;;1.36;80.73;97402.38;218422;1292;22596;-75
2023/03/07 02:52:06;;;;;;;22.70;15.40;;;;;;;1.36;80.40;97401.63;218588;1289;22667;-74
2023/03/07 02:57:09;;;;;;;22.90;15.50;;;;;;;1.36;80.38;97404.91;218613;1279;22705;-76
2023/03/07 03:02:11;;;;;;;23.20;15.50;;;;;;;1.37;80.13;97401.23;218565;1283;22559;-75
2023/03/07 03:07:13;;;;;;;22.20;14.40;;;;;;;1.37;80.39;97402.54;218353;1297;22673;-74
2023/03/07 03:12:15;;;;;;;24.50;15.00;;;;;;;1.40;80.32;97406.97;218600;1295;22537;-75
2023/03/07 03:17:18;;;;;;;23.80;15.00;;;;;;;1.43;80.30;97405.81;218382;1297;22546;-75
2023/03/07 03:22:20;;;;;;;21.60;14.20;;;;;;;1.45;80.46;97408.56;218575;1295;25033;-74
2023/03/07 03:27:23;;;;;;;19.20;13.80;;;;;;;1.45;80.32;97411.30;218722;1296;22543;-74
2023/03/07 03:32:26;;;;;;;20.50;13.50;;;;;;;1.46;80.66;97406.39;218860;1295;22546;-76
2023/03/07 03:37:28;;;;;;;21.10;13.40;;;;;;;1.44;80.62;97407.60;218768;1293;23177;-76
2023/03/07 03:42:31;;;;;;;21.00;13.70;;;;;;;1.43;80.62;97406.68;218460;1293;22545;-75
2023/03/07 03:47:36;;;;;;;18.10;11.90;;;;;;;1.42;80.31;97402.06;218524;1295;24410;-74
2023/03/07 03:52:38;;;;;;;20.70;13.60;;;;;;;1.39;80.35;97403.42;218838;1296;24253;-75
2023/03/07 03:57:41;;;;;;;19.60;13.80;;;;;;;1.35;80.35;97403.65;218670;1295;24418;-75
2023/03/07 04:02:47;;;;;;;20.10;14.30;;;;;;;1.31;80.42;97408.34;218868;1295;22547;-75
2023/03/07 04:07:50;;;;;;;20.40;14.30;;;;;;;1.26;80.37;97418.48;218586;1297;22798;-75
2023/03/07 04:12:54;;;;;;;22.40;14.50;;;;;;;1.24;80.31;97417.48;218690;1297;23036;-75
2023/03/07 04:17:56;;;;;;;22.00;14.60;;;;;;;1.22;80.28;97422.64;218613;1295;25315;-75
2023/03/07 04:22:58;;;;;;;21.80;14.60;;;;;;;1.19;80.52;97415.66;218446;1295;24253;-75
2023/03/07 04:28:01;;;;;;;23.90;14.10;;;;;;;1.15;80.42;97412.23;218625;1295;22581;-75
2023/03/07 04:33:03;;;;;;;20.70;13.40;;;;;;;1.08;80.20;97406.63;218424;1296;22568;-75
2023/03/07 04:38:06;;;;;;;23.50;15.70;;;;;;;0.97;80.26;97406.65;218826;1295;24295;-74
2023/03/07 04:43:09;;;;;;;23.40;16.50;;;;;;;0.85;80.39;97408.52;218934;1297;22679;-75
2023/03/07 04:48:12;;;;;;;28.70;19.80;;;;;;;0.71;80.34;97407.40;218575;1292;23947;-75
2023/03/07 04:53:17;;;;;;;26.50;17.40;;;;;;;0.56;80.35;97401.68;218577;1297;22584;-74
2023/03/07 04:58:21;;;;;;;25.40;16.40;;;;;;;0.43;80.34;97394.77;219042;1289;22557;-75
2023/03/07 05:03:27;;;;;;;23.70;17.10;;;;;;;0.31;80.52;97392.52;218326;1297;24281;-75
2023/03/07 05:08:31;;;;;;;23.30;15.70;;;;;;;0.20;80.92;97386.35;218549;1295;22551;-75
2023/03/07 05:13:35;;;;;;;24.50;15.90;;;;;;;0.10;81.12;97381.19;218762;1297;24225;-75
2023/03/07 05:18:37;;;;;;;27.50;16.80;;;;;;;0.02;81.22;97381.16;218817;1293;24298;-75
2023/03/07 05:23:41;;;;;;;32.00;17.30;;;;;;;-0.04;81.39;97383.29;218507;1297;24263;-75
2023/03/07 05:28:48;;;;;;;31.50;18.60;;;;;;;-0.07;81.68;97381.81;218555;1296;22548;-75
2023/03/07 05:33:50;;;;;;;31.70;18.50;;;;;;;-0.07;81.79;97385.29;218418;1297;23886;-75
2023/03/07 05:38:55;;;;;;;32.30;18.40;;;;;;;-0.06;81.97;97384.38;218863;1295;22869;-76
2023/03/07 05:43:58;;;;;;;37.80;20.70;;;;;;;-0.05;81.80;97377.70;218944;1297;22526;-75
2023/03/07 05:49:01;;;;;;;35.20;19.60;;;;;;;-0.01;82.03;97380.22;218246;1297;22561;-76
2023/03/07 05:54:06;;;;;;;29.60;17.90;;;;;;;0.07;82.22;97381.50;218616;1296;23326;-74
2023/03/07 05:59:14;;;;;;;27.50;15.90;;;;;;;0.16;81.77;97381.05;218727;1295;24293;-74
2023/03/07 06:04:17;;;;;;;28.30;17.40;;;;;;;0.28;81.67;97382.98;218435;1296;22691;-75
2023/03/07 06:09:22;;;;;;;27.10;16.20;;;;;;;0.41;81.91;97382.10;218589;1295;22634;-75
2023/03/07 06:14:25;;;;;;;29.30;16.70;;;;;;;0.56;81.75;97378.27;218883;1297;22566;-76
2023/03/07 06:19:29;;;;;;;29.30;17.80;;;;;;;0.73;81.44;97375.85;218640;1297;22681;-76
2023/03/07 06:24:33;;;;;;;27.20;16.70;;;;;;;0.89;81.19;97373.07;218586;1297;22549;-73
2023/03/07 06:29:36;;;;;;;25.10;15.20;;;;;;;1.05;80.96;97370.15;218527;1297;22656;-75
2023/03/07 06:34:58;;;;;;;26.00;16.00;;;;;;;1.20;80.69;97372.36;217866;1295;22542;-76
2023/03/07 06:40:05;;;;;;;25.80;16.40;;;;;;;1.37;80.82;97375.69;217921;1299;24277;-74
2023/03/07 06:45:10;;;;;;;25.60;15.10;;;;;;;1.56;80.58;97372.10;218197;1297;22655;-74
2023/03/07 06:50:12;;;;;;;26.60;15.00;;;;;;;1.72;79.89;97368.03;218201;1281;22596;-75
2023/03/07 06:55:16;;;;;;;25.80;15.40;;;;;;;1.86;79.74;97366.00;218451;1293;22561;-72
2023/03/07 07:00:21;;;;;;;23.00;14.30;;;;;;;2.01;79.48;97363.31;219337;1283;22554;-77
2023/03/07 07:05:27;;;;;;;26.40;15.80;;;;;;;2.16;79.09;97363.05;219329;1273;22727;-74
2023/03/07 07:10:29;;;;;;;25.60;15.60;;;;;;;2.35;78.78;97363.38;218997;1280;22679;-74
2023/03/07 07:15:33;;;;;;;25.30;15.20;;;;;;;2.55;78.59;97360.44;218762;1286;22532;-74
2023/03/07 07:20:35;;;;;;;24.50;14.80;;;;;;;2.72;78.36;97359.17;218680;1282;25332;-75
2023/03/07 07:25:38;;;;;;;22.90;13.60;;;;;;;2.83;77.81;97367.08;218761;1289;22607;-74
2023/03/07 07:30:40;;;;;;;21.80;13.70;;;;;;;2.93;77.58;97362.29;218860;1282;22607;-74
2023/03/07 07:35:43;;;;;;;21.80;13.70;;;;;;;3.08;77.45;97361.84;219921;1283;24445;-75
2023/03/07 07:40:45;;;;;;;21.00;13.80;;;;;;;3.23;76.98;97360.27;219511;1286;24113;-74
2023/03/07 07:45:48;;;;;;;23.60;14.30;;;;;;;3.35;76.41;97362.72;219702;1286;22565;-74
2023/03/07 07:50:52;;;;;;;21.50;14.10;;;;;;;3.48;76.15;97351.75;219839;1283;23344;-75
2023/03/07 07:55:54;;;;;;;22.20;14.80;;;;;;;3.60;75.88;97339.95;219768;1283;22549;-75
2023/03/07 08:00:57;;;;;;;21.00;13.70;;;;;;;3.77;76.12;97336.83;219873;1284;22577;-73
2023/03/07 08:05:59;;;;;;;19.90;13.50;;;;;;;3.92;75.35;97327.60;220039;1292;25397;-74
2023/03/07 08:11:02;;;;;;;22.30;13.60;;;;;;;4.01;75.02;97327.69;219901;1289;26615;-74
2023/03/07 08:16:23;;;;;;;20.20;13.90;;;;;;;4.18;75.04;97320.38;219920;1295;22681;-75
2023/03/07 08:21:25;;;;;;;19.80;13.20;;;;;;;4.34;74.06;97314.59;219618;1285;22674;-74
2023/03/07 08:26:27;;;;;;;22.40;14.00;;;;;;;4.36;73.27;97316.18;220088;1295;23380;-73
2023/03/07 08:31:29;;;;;;;21.70;14.30;;;;;;;4.46;73.74;97316.41;219908;1290;22631;-74
2023/03/07 08:36:32;;;;;;;20.30;13.20;;;;;;;4.59;73.18;97315.49;219625;1290;23760;-75
2023/03/07 08:41:34;;;;;;;19.20;12.60;;;;;;;4.68;72.66;97314.02;219564;1283;22750;-75
2023/03/07 08:46:36;;;;;;;20.10;13.00;;;;;;;4.80;72.51;97318.02;219602;1289;24325;-73
2023/03/07 08:51:39;;;;;;;18.10;12.00;;;;;;;4.90;71.97;97318.52;219678;1291;22687;-74
2023/03/07 08:56:41;;;;;;;23.80;13.00;;;;;;;5.03;72.14;97316.02;219492;1290;22543;-75
2023/03/07 09:01:43;;;;;;;19.30;12.90;;;;;;;5.19;71.94;97311.55;219317;1295;22560;-75
2023/03/07 09:06:45;;;;;;;16.70;11.10;;;;;;;5.35;71.38;97311.83;219738;1290;22625;-76
2023/03/07 09:11:50;;;;;;;17.00;11.90;;;;;;;5.39;69.81;97307.21;219436;1290;22536;-76
2023/03/07 09:16:53;;;;;;;16.10;8.70;;;;;;;5.34;69.83;97304.97;219603;1290;23394;-76
2023/03/07 09:21:55;;;;;;;16.00;10.60;;;;;;;5.29;68.57;97303.48;219834;1280;22562;-76
2023/03/07 09:26:58;;;;;;;16.70;11.30;;;;;;;5.13;67.52;97302.73;219366;1293;23184;-76
2023/03/07 09:32:02;;;;;;;14.60;8.80;;;;;;;5.01;68.13;97296.16;219802;1293;23765;-78
2023/03/07 09:37:05;;;;;;;15.90;8.80;;;;;;;4.89;67.53;97288.77;219938;1289;22612;-77
2023/03/07 09:42:39;;;;;;;13.50;9.00;;;;;;;4.96;68.15;97279.91;219709;1292;22677;-79
2023/03/07 09:48:02;;;;;;;13.60;9.80;;;;;;;5.22;67.43;97268.92;219766;1290;24968;-74
2023/03/07 09:53:05;;;;;;;10.20;7.60;;;;;;;5.50;66.06;97264.05;219831;1289;24015;-75
2023/03/07 09:58:17;;;;;;;12.10;8.70;;;;;;;5.71;65.34;97267.99;219846;1290;23252;-75
2023/03/07 10:03:28;;;;;;;12.10;7.80;;;;;;;5.99;65.88;97262.89;219936;1293;22546;-75
2023/03/07 10:08:32;;;;;;;10.50;6.70;;;;;;;6.21;63.75;97259.14;219935;1291;23676;-74
2023/03/07 10:14:00;;;;;;;11.40;8.00;;;;;;;6.32;62.88;97255.37;219954;1290;22566;-75
2023/03/07 10:19:13;;;;;;;11.60;8.00;;;;;;;6.52;63.14;97244.23;219998;1290;23680;-76
2023/03/07 10:24:37;;;;;;;13.60;8.80;;;;;;;6.52;62.36;97239.55;220140;1291;22728;-76
2023/03/07 10:29:51;;;;;;;12.60;8.60;;;;;;;6.58;62.14;97236.40;220109;1292;22582;-75
2023/03/07 10:34:59;;;;;;;10.30;7.00;;;;;;;6.61;62.14;97234.52;220120;1287;24395;-74
2023/03/07 10:40:02;;;;;;;11.10;8.80;;;;;;;6.72;61.58;97230.23;219836;1295;22559;-76
2023/03/07 10:45:10;;;;;;;12.50;8.80;;;;;;;6.93;62.19;97228.45;224027;1286;22230;-76
2023/03/07 10:50:28;;;;;;;12.50;8.30;;;;;;;7.04;61.59;97215.52;224150;1289;22790;-75
2023/03/07 10:55:31;;;;;;;13.60;9.50;;;;;;;7.06;61.00;97212.58;224181;1297;22127;-75
2023/03/07 11:00:34;;;;;;;12.90;8.20;;;;;;;7.15;61.61;97217.72;224216;1289;24370;-75
2023/03/07 11:05:37;;;;;;;14.20;10.30;;;;;;;7.09;60.31;97208.12;224030;1290;24432;-74
2023/03/07 11:10:40;;;;;;;12.80;9.20;;;;;;;6.90;61.43;97198.73;223894;1294;24433;-75
2023/03/07 11:15:44;;;;;;;12.70;9.70;;;;;;;6.93;61.14;97199.22;223950;1295;161523;-75
2023/03/07 11:20:50;;;;;;;13.20;8.40;;;;;;;6.95;61.53;97190.02;224158;1295;25218;-75
2023/03/07 11:25:54;;;;;;;13.40;9.20;;;;;;;6.99;61.86;97199.02;223981;1285;22245;-75
2023/03/07 11:31:02;;;;;;;13.70;9.90;;;;;;;7.12;61.73;97200.09;223779;1298;24220;-76
2023/03/07 11:36:10;;;;;;;11.80;9.00;;;;;;;7.20;61.16;97190.70;224164;1295;22187;-77
2023/03/07 11:41:24;;;;;;;14.60;10.00;;;;;;;7.30;61.13;97179.02;223907;1290;25447;-76
2023/03/07 11:46:40;;;;;;;12.80;9.40;;;;;;;7.41;61.32;97168.48;223918;1289;23063;-76
2023/03/07 11:51:58;;;;;;;14.00;9.30;;;;;;;7.51;60.04;97163.40;224178;1289;24153;-76
2023/03/07 11:57:36;;;;;;;12.60;8.50;;;;;;;7.54;60.23;97162.26;224064;1296;24348;-77
2023/03/07 12:02:50;;;;;;;13.20;8.70;;;;;;;7.40;60.16;97162.27;223922;1289;22238;-75
2023/03/07 12:08:26;;;;;;;13.70;10.00;;;;;;;7.35;60.73;97162.80;224039;1289;24880;-76
2023/03/07 12:13:31;;;;;;;11.50;7.70;;;;;;;7.39;60.98;97160.58;224183;1292;24413;-76
2023/03/07 12:18:55;;;;;;;15.80;9.20;;;;;;;7.44;60.92;97149.48;224181;1297;22160;-76
2023/03/07 12:24:20;;;;;;;12.70;8.40;;;;;;;7.60;61.35;97141.16;224143;1289;24137;-75
2023/03/07 12:29:43;;;;;;;12.40;9.20;;;;;;;7.67;59.90;97144.20;223995;1292;22206;-77
2023/03/07 12:34:57;;;;;;;15.40;10.20;;;;;;;7.71;59.93;97136.98;224120;1292;24234;-74
2023/03/07 12:40:16;;;;;;;15.90;10.20;;;;;;;7.70;60.00;97137.11;223917;1289;24224;-75
2023/03/07 12:45:21;;;;;;;13.00;9.10;;;;;;;7.67;60.01;97124.35;223944;1296;24248;-75
2023/03/07 12:50:31;;;;;;;14.80;9.90;;;;;;;7.67;59.73;97123.86;224126;1292;24389;-76
2023/03/07 12:55:41;;;;;;;14.60;9.60;;;;;;;7.66;59.90;97127.86;224082;1289;24286;-75
2023/03/07 13:00:53;;;;;;;12.60;8.50;;;;;;;7.65;59.39;97128.88;224225;1292;25381;-75
2023/03/07 13:05:55;;;;;;;11.90;9.10;;;;;;;7.56;58.43;97124.60;224166;1295;25256;-75
2023/03/07 13:10:59;;;;;;;11.30;8.30;;;;;;;7.48;59.14;97119.86;224178;1289;24195;-74
2023/03/07 13:16:04;;;;;;;11.10;8.10;;;;;;;7.42;58.39;97116.14;224040;1292;24251;-75
2023/03/07 13:21:28;;;;;;;12.30;8.40;;;;;;;7.26;58.04;97115.63;224100;1295;24201;-74
2023/03/07 13:26:31;;;;;;;12.20;8.60;;;;;;;7.17;58.85;97115.34;224089;1283;25349;-74
2023/03/07 13:31:41;;;;;;;12.90;9.20;;;;;;;7.13;59.01;97109.15;224187;1296;22250;-74
2023/03/07 13:36:43;;;;;;;14.10;9.40;;;;;;;7.13;59.72;97107.22;224084;1293;24143;-73
2023/03/07 13:41:48;;;;;;;17.90;10.30;;;;;;;7.13;59.80;97112.33;224231;1297;22353;-74
2023/03/07 13:46:52;;;;;;;20.50;11.00;;;;;;;7.18;60.39;97105.35;223982;1286;22225;-73
2023/03/07 13:52:29;;;;;;;17.30;10.40;;;;;;;7.21;59.93;97100.90;224101;1296;24281;-75
2023/03/07 13:57:35;;;;;;;13.50;9.40;;;;;;;7.22;60.60;97086.96;224136;1283;24238;-74
2023/03/07 14:02:40;;;;;;;16.50;11.30;;;;;;;7.24;60.71;97079.56;224199;1295;24300;-74
2023/03/07 14:07:50;;;;;;;18.50;10.80;;;;;;;7.31;60.94;97071.72;224255;1283;22182;-74
2023/03/07 14:13:13;;;;;;;16.40;11.90;;;;;;;7.39;60.91;97063.93;223112;1297;24918;-75
2023/03/07 14:18:38;;;;;;;15.00;10.50;;;;;;;7.56;60.81;97058.34;218824;1293;25329;-75
2023/03/07 14:24:19;;;;;;;15.40;11.20;;;;;;;7.54;60.10;97055.24;218616;1283;24357;-73
2023/03/07 14:29:24;;;;;;;17.60;11.70;;;;;;;7.50;60.38;97051.50;218546;1282;22550;-76
2023/03/07 14:34:30;;;;;;;15.00;10.60;;;;;;;7.46;60.03;97044.77;219044;1278;22771;-75
2023/03/07 14:39:47;;;;;;;15.70;10.00;;;;;;;7.48;60.00;97041.31;218787;1285;22574;-75
2023/03/07 14:45:18;;;;;;;16.90;9.20;;;;;;;7.46;60.23;97045.73;218579;1289;22613;-75
2023/03/07 14:50:25;;;;;;;15.90;10.10;;;;;;;7.38;60.12;97043.23;218897;1289;25399;-77
2023/03/07 14:55:37;;;;;;;31.00;11.20;;;;;;;7.32;59.90;97036.88;218877;1283;23540;-76
2023/03/07 15:00:39;;;;;;;15.80;10.10;;;;;;;7.26;60.16;97035.66;218606;1283;22678;-76
2023/03/07 15:05:51;;;;;;;13.40;9.30;;;;;;;7.19;60.37;97037.88;218667;1292;25303;-78
2023/03/07 15:11:05;;;;;;;14.10;9.70;;;;;;;7.07;60.01;97032.39;218982;1294;22549;-75
2023/03/07 15:16:30;;;;;;;17.70;10.40;;;;;;;6.93;60.14;97034.51;218727;1294;22569;-76
2023/03/07 15:21:43;;;;;;;14.70;10.10;;;;;;;6.82;60.43;97021.23;218786;1289;22697;-76
2023/03/07 15:26:51;;;;;;;13.60;10.00;;;;;;;6.73;60.82;97017.16;218562;1295;24253;-76
2023/03/07 15:32:05;;;;;;;13.40;10.10;;;;;;;6.64;60.82;97010.34;218327;1292;22577;-75
2023/03/07 15:37:23;;;;;;;14.80;10.30;;;;;;;6.55;61.12;97002.66;218724;1295;22550;-74
2023/03/07 15:42:25;;;;;;;14.40;9.50;;;;;;;6.49;61.77;96999.29;218551;1297;22582;-78
2023/03/07 15:47:30;;;;;;;15.60;9.20;;;;;;;6.44;61.60;96988.69;218620;1294;22570;-75
2023/03/07 15:52:37;;;;;;;15.00;10.20;;;;;;;6.41;61.86;96992.55;218416;1297;22564;-75
2023/03/07 15:57:49;;;;;;;18.60;10.00;;;;;;;6.37;61.90;96994.39;218698;1297;22556;-75
2023/03/07 16:02:52;;;;;;;19.70;12.50;;;;;;;6.34;62.03;96995.81;218731;1292;24319;-75
2023/03/07 16:07:56;;;;;;;20.00;13.50;;;;;;;6.29;62.42;96992.63;218587;1296;22681;-75
2023/03/07 16:13:01;;;;;;;18.90;12.50;;;;;;;6.20;62.70;96983.90;218909;1292;22656;-75
2023/03/07 16:18:04;;;;;;;20.70;12.70;;;;;;;6.11;62.83;96986.20;218441;1296;23507;-75
2023/03/07 16:23:11;;;;;;;20.80;13.30;;;;;;;6.03;63.19;96985.38;218558;1297;22554;-76
2023/03/07 16:28:13;;;;;;;19.80;12.20;;;;;;;5.94;63.62;96979.41;218640;1292;24457;-75
2023/03/07 16:33:16;;;;;;;23.00;14.80;;;;;;;5.85;63.83;96971.40;218587;1295;22564;-75
2023/03/07 16:38:18;;;;;;;21.50;14.40;;;;;;;5.77;64.13;96969.07;218632;1274;22995;-76
2023/03/07 16:43:35;;;;;;;22.90;14.00;;;;;;;5.69;64.09;96971.52;218719;1294;22679;-75
2023/03/07 16:48:37;;;;;;;22.10;14.80;;;;;;;5.64;64.44;96964.98;218560;1296;22573;-76
2023/03/07 16:53:39;;;;;;;24.90;15.00;;;;;;;5.62;64.81;96972.02;218759;1292;23050;-75
2023/03/07 16:58:41;;;;;;;24.60;15.50;;;;;;;5.60;64.85;96975.08;218656;1295;24088;-75
2023/03/07 17:03:46;;;;;;;24.30;15.80;;;;;;;5.59;65.21;96975.27;218750;1295;25274;-77
2023/03/07 17:08:51;;;;;;;26.10;16.30;;;;;;;5.57;65.61;96980.19;218577;1297;22773;-75
2023/03/07 17:13:58;;;;;;;29.70;16.30;;;;;;;5.55;65.36;96980.78;218681;1295;22549;-76
2023/03/07 17:19:00;;;;;;;24.70;16.10;;;;;;;5.54;65.64;96981.46;218558;1297;22680;-75
2023/03/07 17:24:07;;;;;;;25.40;16.90;;;;;;;5.54;65.60;96980.66;218875;1296;24269;-75
2023/03/07 17:29:16;;;;;;;23.00;15.40;;;;;;;5.55;65.83;96986.75;218732;1292;22649;-75
2023/03/07 17:34:27;;;;;;;20.50;14.20;;;;;;;5.59;65.99;96985.88;218208;1297;26571;-75
2023/03/07 17:39:30;;;;;;;21.40;14.10;;;;;;;5.67;66.29;96983.48;218745;1295;22581;-76
2023/03/07 17:44:33;;;;;;;20.50;13.20;;;;;;;5.73;66.68;96982.01;218750;1295;24899;-76
2023/03/07 17:49:38;;;;;;;21.60;14.10;;;;;;;5.75;66.75;96983.63;218889;1289;23026;-75
2023/03/07 17:54:40;;;;;;;22.60;14.40;;;;;;;5.76;66.75;96983.91;218343;1295;24240;-75
2023/03/07 17:59:47;;;;;;;21.20;13.20;;;;;;;5.74;67.31;96980.11;218228;1295;25428;-75
2023/03/07 18:04:50;;;;;;;17.60;11.10;;;;;;;5.71;67.30;96980.63;218660;1289;25543;-76
2023/03/07 18:09:52;;;;;;;25.20;16.40;;;;;;;5.65;67.56;96981.64;218787;1292;23480;-75
2023/03/07 18:15:15;;;;;;;24.10;15.60;;;;;;;5.54;67.91;96985.86;218448;1296;22542;-76
2023/03/07 18:20:19;;;;;;;26.60;15.20;;;;;;;5.42;68.02;96982.19;218620;1296;25455;-75
2023/03/07 18:25:21;;;;;;;24.40;15.30;;;;;;;5.34;68.41;96986.89;218717;1295;24281;-76
2023/03/07 18:30:26;;;;;;;22.60;14.20;;;;;;;5.30;68.85;96991.27;218459;1297;22668;-76
2023/03/07 18:35:28;;;;;;;23.20;14.50;;;;;;;5.30;69.28;96990.02;218577;1292;25565;-75
2023/03/07 18:40:30;;;;;;;19.50;14.60;;;;;;;5.33;69.46;96986.77;218277;1289;23233;-76
2023/03/07 18:45:32;;;;;;;27.40;15.20;;;;;;;5.35;69.76;96996.75;218589;1296;24281;-76
2023/03/07 18:50:34;;;;;;;22.90;14.80;;;;;;;5.35;69.95;96993.88;218769;1291;22582;-76
2023/03/07 18:55:37;;;;;;;21.50;13.30;;;;;;;5.32;70.19;96988.55;218530;1292;25439;-75
2023/03/07 19:00:39;;;;;;;21.80;13.40;;;;;;;5.29;70.55;96994.30;218642;1297;22574;-75
2023/03/07 19:05:47;;;;;;;21.60;14.70;;;;;;;5.27;70.72;96990.23;218689;1297;22541;-75
2023/03/07 19:10:49;;;;;;;23.30;14.80;;;;;;;5.23;71.11;96989.84;218719;1295;22608;-74
2023/03/07 19:16:10;;;;;;;23.50;14.30;;;;;;;5.21;71.63;96992.45;218459;1293;22594;-74
2023/03/07 19:21:15;;;;;;;22.00;15.00;;;;;;;5.17;71.97;96997.61;218369;1290;22575;-76
2023/03/07 19:26:18;;;;;;;23.90;14.80;;;;;;;5.15;71.91;96998.33;218438;1295;23967;-75
2023/03/07 19:31:29;;;;;;;25.20;15.20;;;;;;;5.12;72.13;96997.84;218777;1296;24128;-75
2023/03/07 19:36:34;;;;;;;22.90;14.50;;;;;;;5.10;72.43;96992.42;219029;1289;25034;-74
2023/03/07 19:41:36;;;;;;;23.90;12.80;;;;;;;5.09;72.58;96986.47;218685;1296;24265;-76
2023/03/07 19:46:41;;;;;;;25.10;14.90;;;;;;;5.08;73.03;96980.86;218547;1294;22548;-75
2023/03/07 19:51:43;;;;;;;23.70;14.60;;;;;;;5.06;73.04;96985.36;218841;1292;22577;-75
2023/03/07 19:56:45;;;;;;;20.80;13.70;;;;;;;5.01;72.98;96979.85;218746;1295;24394;-76
2023/03/07 20:01:48;;;;;;;23.00;14.50;;;;;;;4.96;73.36;96977.86;218137;1297;24477;-75
2023/03/07 20:06:50;;;;;;;22.20;14.20;;;;;;;4.90;73.52;96974.79;218349;1292;22546;-75
2023/03/07 20:11:52;;;;;;;21.70;13.90;;;;;;;4.86;73.80;96968.94;218580;1295;24262;-75
2023/03/07 20:16:54;;;;;;;23.70;14.90;;;;;;;4.82;74.01;96968.39;218656;1297;25395;-75
2023/03/07 20:21:56;;;;;;;23.30;13.60;;;;;;;4.80;74.16;96969.35;218888;1295;25452;-75
2023/03/07 20:26:59;;;;;;;22.80;14.30;;;;;;;4.78;74.26;96972.84;218603;1297;22587;-76
2023/03/07 20:32:01;;;;;;;23.00;14.70;;;;;;;4.78;74.43;96966.60;218728;1297;22566;-75
2023/03/07 20:37:03;;;;;;;24.20;13.70;;;;;;;4.77;74.16;96963.25;218751;1297;22550;-75
2023/03/07 20:42:05;;;;;;;24.10;13.80;;;;;;;4.76;74.29;96958.95;218745;1293;24221;-75
2023/03/07 20:47:07;;;;;;;27.20;14.90;;;;;;;4.77;74.29;96965.23;218442;1296;25394;-76
2023/03/07 20:52:11;;;;;;;26.20;13.90;;;;;;;4.76;74.32;96962.00;218220;1295;25518;-75
2023/03/07 20:57:13;;;;;;;22.40;13.60;;;;;;;4.74;74.18;96960.69;218469;1297;22637;-76
2023/03/07 21:02:15;;;;;;;23.00;14.10;;;;;;;4.71;74.18;96956.33;218671;1294;22663;-75
2023/03/07 21:07:17;;;;;;;23.70;13.90;;;;;;;4.69;74.27;96955.27;218863;1294;24234;-76
2023/03/07 21:12:19;;;;;;;22.80;14.00;;;;;;;4.66;74.37;96961.05;218881;1292;25315;-76
2023/03/07 21:17:21;;;;;;;22.20;13.30;;;;;;;4.64;74.33;96956.45;218882;1297;24285;-76
2023/03/07 21:22:23;;;;;;;23.50;14.20;;;;;;;4.61;74.66;96957.77;218589;1295;25395;-75
2023/03/07 21:27:26;;;;;;;23.80;14.50;;;;;;;4.60;74.87;96948.58;218893;1291;22617;-76
2023/03/07 21:32:28;;;;;;;23.30;13.70;;;;;;;4.61;74.95;96948.02;218615;1295;22633;-74
2023/03/07 21:37:34;;;;;;;23.10;13.00;;;;;;;4.62;75.06;96955.36;218769;1295;24300;-74
2023/03/07 21:42:35;;;;;;;24.80;14.00;;;;;;;4.61;74.89;96953.58;218826;1294;24257;-75
2023/03/07 21:47:37;;;;;;;19.80;13.30;;;;;;;4.60;75.00;96953.17;218494;1293;24298;-75
2023/03/07 21:52:39;;;;;;;21.70;13.30;;;;;;;4.60;75.00;96956.92;218745;1292;22572;-75
2023/03/07 21:57:42;;;;;;;22.10;14.10;;;;;;;4.59;75.08;96962.61;218568;1295;24319;-75
2023/03/07 22:02:44;;;;;;;25.90;14.40;;;;;;;4.58;75.20;96959.55;218577;1281;22681;-74
2023/03/07 22:07:48;;;;;;;24.30;13.90;;;;;;;4.58;75.34;96965.14;218722;1293;22643;-74
2023/03/07 22:13:17;;;;;;;25.90;15.30;;;;;;;4.58;75.29;96974.35;218727;1279;22549;-75
2023/03/07 22:18:19;;;;;;;24.90;13.60;;;;;;;4.59;75.41;96973.23;218521;1289;22553;-75
2023/03/07 22:23:22;;;;;;;22.20;13.60;;;;;;;4.58;75.45;96965.61;218691;1292;22690;-74
2023/03/07 22:28:24;;;;;;;25.50;14.90;;;;;;;4.58;75.45;96971.02;218843;1293;24228;-74
2023/03/07 22:33:29;;;;;;;22.20;13.90;;;;;;;4.58;75.46;96975.04;218707;1297;25440;-75
2023/03/07 22:38:31;;;;;;;23.50;14.90;;;;;;;4.57;75.72;96986.34;218648;1297;24253;-75
2023/03/07 22:43:36;;;;;;;23.00;14.60;;;;;;;4.57;75.61;96984.60;218613;1293;22663;-75
2023/03/07 22:48:39;;;;;;;24.00;14.30;;;;;;;4.57;75.84;96986.86;218728;1297;24296;-75
2023/03/07 22:54:03;;;;;;;23.00;14.00;;;;;;;4.55;76.01;96988.36;218490;1297;24323;-73
2023/03/07 22:59:05;;;;;;;22.30;14.70;;;;;;;4.52;76.12;96983.80;218899;1289;22577;-75
2023/03/07 23:04:08;;;;;;;22.40;14.30;;;;;;;4.50;76.24;96989.39;218542;1295;22613;-75
2023/03/07 23:09:10;;;;;;;22.10;14.10;;;;;;;4.47;76.41;96986.70;218439;1289;25424;-74
2023/03/07 23:14:14;;;;;;;22.40;13.20;;;;;;;4.46;76.68;96986.73;218633;1295;203616;-75
2023/03/07 23:19:16;;;;;;;21.10;13.10;;;;;;;4.44;76.79;96988.40;218770;1297;25061;-75
2023/03/07 23:24:18;;;;;;;22.40;14.50;;;;;;;4.42;76.99;96984.73;218073;1295;24896;-75
2023/03/07 23:29:20;;;;;;;23.80;14.40;;;;;;;4.40;77.17;96983.46;218347;1297;26435;-75
2023/03/07 23:34:22;;;;;;;22.60;14.00;;;;;;;4.38;77.29;96986.71;218774;1297;25545;-74